createdAt,value
2017-07-10T00:00:53.438Z,95.10
2017-07-10T00:03:21.042Z,95.00
2017-07-10T00:05:48.708Z,94.70
2017-07-10T00:08:16.315Z,95.60
2017-07-10T00:10:44.076Z,95.00
2017-07-10T00:13:11.743Z,95.00
2017-07-10T00:15:39.371Z,95.40
2017-07-10T00:18:07.009Z,95.30
2017-07-10T00:20:34.656Z,95.20
2017-07-10T00:23:02.271Z,95.50
2017-07-10T00:25:29.969Z,95.50
2017-07-10T00:27:57.649Z,95.70
2017-07-10T00:30:25.267Z,95.90
2017-07-10T00:32:53.028Z,95.70
2017-07-10T00:35:20.692Z,95.80
2017-07-10T00:37:49.101Z,96.30
2017-07-10T00:40:16.727Z,96.20
2017-07-10T00:42:45.476Z,96.40
2017-07-10T00:45:13.497Z,96.40
2017-07-10T00:47:41.141Z,96.90
2017-07-10T00:50:08.792Z,97.40
2017-07-10T00:52:38.044Z,97.70
2017-07-10T00:55:05.683Z,98.70
2017-07-10T00:57:33.468Z,98.90
2017-07-10T01:00:01.099Z,99.30
2017-07-10T01:02:28.731Z,99.10
2017-07-10T01:04:56.409Z,99.40
2017-07-10T01:07:24.196Z,99.30
2017-07-10T01:09:51.841Z,99.10
2017-07-10T01:12:19.511Z,99.30
2017-07-10T01:14:47.154Z,99.70
2017-07-10T01:17:14.791Z,99.90
2017-07-10T01:19:43.242Z,99.90
2017-07-10T01:22:10.897Z,99.90
2017-07-10T01:24:39.345Z,99.90
2017-07-10T01:27:06.996Z,99.90
2017-07-10T01:29:34.631Z,99.90
2017-07-10T01:32:02.303Z,99.90
2017-07-10T01:34:30.128Z,99.90
2017-07-10T01:36:57.764Z,99.90
2017-07-10T01:39:25.431Z,99.90
2017-07-10T01:41:53.133Z,99.90
2017-07-10T01:44:20.780Z,99.90
2017-07-10T01:46:48.420Z,99.90
2017-07-10T01:49:16.087Z,99.90
2017-07-10T01:51:43.723Z,99.90
2017-07-10T01:54:11.367Z,99.90
2017-07-10T01:56:39.037Z,99.90
2017-07-10T01:59:06.681Z,99.90
2017-07-10T02:01:34.428Z,99.90
2017-07-10T02:04:02.094Z,99.90
2017-07-10T02:06:29.750Z,99.90
2017-07-10T02:08:57.397Z,99.90
2017-07-10T02:11:25.155Z,99.90
2017-07-10T02:13:53.551Z,99.90
2017-07-10T02:16:21.189Z,99.90
2017-07-10T02:18:48.868Z,99.90
2017-07-10T02:21:16.480Z,99.90
2017-07-10T02:23:44.152Z,99.90
2017-07-10T02:26:11.837Z,99.90
2017-07-10T02:28:39.503Z,99.90
2017-07-10T02:31:07.924Z,99.90
2017-07-10T02:33:35.597Z,99.90
2017-07-10T02:36:03.309Z,99.60
2017-07-10T02:38:30.943Z,99.50
2017-07-10T02:40:58.620Z,99.00
2017-07-10T02:43:26.255Z,99.00
2017-07-10T02:45:54.103Z,99.10
2017-07-10T02:48:21.780Z,99.90
2017-07-10T02:50:49.406Z,99.50
2017-07-10T02:53:17.057Z,99.90
2017-07-10T02:55:44.726Z,99.90
2017-07-10T02:58:12.435Z,99.90
2017-07-10T03:00:40.115Z,99.90
2017-07-10T03:03:07.784Z,99.90
2017-07-10T03:05:35.399Z,99.90
2017-07-10T03:08:03.078Z,99.90
2017-07-10T03:10:31.528Z,99.90
2017-07-10T03:12:59.173Z,99.90
2017-07-10T03:15:26.803Z,99.90
2017-07-10T03:17:54.537Z,99.90
2017-07-10T03:20:22.180Z,99.90
2017-07-10T03:22:49.823Z,99.90
2017-07-10T03:25:17.474Z,99.90
2017-07-10T03:27:45.115Z,99.70
2017-07-10T03:30:12.722Z,99.90
2017-07-10T03:32:41.155Z,99.90
2017-07-10T03:35:08.764Z,99.70
2017-07-10T03:37:36.407Z,98.90
2017-07-10T03:40:04.100Z,99.60
2017-07-10T03:42:31.744Z,99.30
2017-07-10T03:44:59.380Z,99.90
2017-07-10T03:47:27.060Z,99.90
2017-07-10T03:49:55.455Z,98.50
2017-07-10T03:52:23.826Z,98.20
2017-07-10T03:54:51.494Z,98.10
2017-07-10T03:57:19.149Z,99.30
2017-07-10T03:59:46.805Z,98.90
2017-07-10T04:02:14.467Z,98.50
2017-07-10T04:04:42.084Z,98.80
2017-07-10T04:07:09.706Z,98.50
2017-07-10T04:09:37.379Z,98.70
2017-07-10T04:12:05.020Z,97.80
2017-07-10T04:14:32.657Z,98.60
2017-07-10T04:17:00.331Z,98.40
2017-07-10T04:19:27.968Z,97.40
2017-07-10T04:21:55.613Z,98.10
2017-07-10T04:24:23.457Z,97.70
2017-07-10T04:26:51.101Z,97.30
2017-07-10T04:29:18.718Z,97.70
2017-07-10T04:31:46.402Z,98.40
2017-07-10T04:34:14.193Z,98.70
2017-07-10T04:36:42.619Z,99.20
2017-07-10T04:39:11.084Z,99.90
2017-07-10T04:41:38.735Z,99.90
2017-07-10T04:44:06.377Z,99.90
2017-07-10T04:46:34.129Z,99.00
2017-07-10T04:49:01.762Z,99.00
2017-07-10T04:51:29.379Z,98.20
2017-07-10T04:53:57.788Z,97.90
2017-07-10T04:56:25.425Z,97.70
2017-07-10T04:58:53.084Z,97.20
2017-07-10T05:01:20.727Z,96.20
2017-07-10T05:03:48.336Z,94.60
2017-07-10T05:06:15.952Z,95.00
2017-07-10T05:08:43.601Z,94.10
2017-07-10T05:11:11.212Z,92.80
2017-07-10T05:13:38.818Z,91.90
2017-07-10T05:16:06.464Z,90.30
2017-07-10T05:18:34.098Z,89.10
2017-07-10T05:21:02.486Z,86.50
2017-07-10T05:23:30.161Z,87.00
2017-07-10T05:25:57.768Z,84.50
2017-07-10T05:28:25.397Z,84.00
2017-07-10T05:30:53.073Z,85.50
2017-07-10T05:33:20.694Z,87.70
2017-07-10T05:35:49.081Z,92.10
2017-07-10T05:38:16.726Z,91.30
2017-07-10T05:40:44.333Z,93.40
2017-07-10T05:43:12.287Z,96.70
2017-07-10T05:45:40.932Z,99.10
2017-07-10T05:48:08.550Z,99.10
2017-07-10T05:50:36.177Z,99.90
2017-07-10T05:53:03.877Z,99.90
2017-07-10T05:55:31.521Z,99.90
2017-07-10T05:57:59.149Z,99.90
2017-07-10T06:00:26.819Z,99.90
2017-07-10T06:02:54.477Z,99.90
2017-07-10T06:05:23.043Z,99.90
2017-07-10T06:07:50.689Z,99.90
2017-07-10T06:10:18.303Z,99.90
2017-07-10T06:12:45.919Z,99.90
2017-07-10T06:15:13.554Z,99.90
2017-07-10T06:17:41.169Z,99.90
2017-07-10T06:20:08.772Z,99.90
2017-07-10T06:22:36.426Z,99.90
2017-07-10T06:25:04.084Z,99.90
2017-07-10T06:27:31.687Z,99.90
2017-07-10T06:30:00.095Z,97.50
2017-07-10T06:32:27.713Z,97.50
2017-07-10T06:34:55.329Z,97.70
2017-07-10T06:37:23.044Z,99.70
2017-07-10T06:39:50.653Z,99.90
2017-07-10T06:42:18.273Z,99.90
2017-07-10T06:44:45.915Z,99.90
2017-07-10T06:47:13.621Z,99.60
2017-07-10T06:49:41.241Z,99.90
2017-07-10T06:52:08.884Z,99.90
2017-07-10T06:54:36.487Z,99.90
2017-07-10T06:57:04.112Z,99.90
2017-07-10T06:59:31.751Z,99.90
2017-07-10T07:01:59.359Z,98.60
2017-07-10T07:04:26.996Z,98.40
2017-07-10T07:06:55.408Z,99.90
2017-07-10T07:09:23.193Z,99.90
2017-07-10T07:11:50.808Z,99.90
2017-07-10T07:14:18.456Z,99.90
2017-07-10T07:16:46.740Z,97.20
2017-07-10T07:19:14.490Z,87.40
2017-07-10T07:21:42.144Z,80.40
2017-07-10T07:24:09.763Z,79.50
2017-07-10T07:26:37.381Z,80.10
2017-07-10T07:29:05.019Z,87.00
2017-07-10T07:31:32.665Z,90.80
2017-07-10T07:34:00.280Z,93.70
2017-07-10T07:36:27.928Z,96.20
2017-07-10T07:38:55.544Z,98.80
2017-07-10T07:41:23.170Z,99.90
2017-07-10T07:43:50.798Z,99.90
2017-07-10T07:46:18.407Z,99.90
2017-07-10T07:48:46.011Z,99.90
2017-07-10T07:51:13.650Z,99.90
2017-07-10T07:53:41.679Z,99.90
2017-07-10T07:56:09.291Z,99.90
2017-07-10T07:58:36.937Z,99.90
2017-07-10T08:01:04.684Z,99.90
2017-07-10T08:03:32.301Z,99.90
2017-07-10T08:06:00.177Z,99.90
2017-07-10T08:08:27.785Z,99.90
2017-07-10T08:10:55.392Z,99.90
2017-07-10T08:13:23.043Z,99.90
2017-07-10T08:15:51.425Z,99.90
2017-07-10T08:18:19.039Z,99.50
2017-07-10T08:20:46.697Z,95.00
2017-07-10T08:23:14.496Z,92.50
2017-07-10T08:25:42.099Z,89.50
2017-07-10T08:28:09.748Z,82.00
2017-07-10T08:30:38.120Z,78.30
2017-07-10T08:33:06.490Z,79.20
2017-07-10T08:35:34.905Z,78.60
2017-07-10T08:38:02.575Z,78.50
2017-07-10T08:40:30.196Z,75.60
2017-07-10T08:42:57.840Z,75.60
2017-07-10T08:45:25.444Z,76.90
2017-07-10T08:47:53.080Z,73.20
2017-07-10T08:50:21.479Z,75.90
2017-07-10T08:52:49.154Z,75.70
2017-07-10T08:55:16.756Z,72.50
2017-07-10T08:57:44.905Z,72.80
2017-07-10T09:00:12.543Z,66.80
2017-07-10T09:02:40.920Z,75.10
2017-07-10T09:05:08.571Z,75.30
2017-07-10T09:07:36.188Z,75.80
2017-07-10T09:10:04.610Z,76.80
2017-07-10T09:12:32.261Z,76.90
2017-07-10T09:15:00.134Z,79.00
2017-07-10T09:17:27.772Z,74.50
2017-07-10T09:19:55.826Z,67.00
2017-07-10T09:22:23.517Z,70.40
2017-07-10T09:24:51.119Z,67.10
2017-07-10T09:27:18.774Z,67.20
2017-07-10T09:29:46.384Z,62.40
2017-07-10T09:32:14.085Z,61.20
2017-07-10T09:34:41.734Z,66.10
2017-07-10T09:37:10.137Z,59.70
2017-07-10T09:39:37.753Z,59.80
2017-07-10T09:42:06.155Z,68.30
2017-07-10T09:44:33.800Z,68.20
2017-07-10T09:47:01.405Z,68.50
2017-07-10T09:49:29.829Z,59.40
2017-07-10T09:51:57.446Z,59.40
2017-07-10T09:54:25.044Z,56.30
2017-07-10T09:56:52.691Z,51.90
2017-07-10T09:59:20.301Z,44.40
2017-07-10T10:01:47.913Z,45.10
2017-07-10T10:04:15.539Z,43.60
2017-07-10T10:06:44.095Z,42.70
2017-07-10T10:09:11.687Z,41.80
2017-07-10T10:11:39.338Z,44.30
2017-07-10T10:14:06.949Z,46.40
2017-07-10T10:16:36.115Z,43.00
2017-07-10T10:19:03.746Z,43.20
2017-07-10T10:21:31.352Z,45.40
2017-07-10T10:23:58.952Z,36.40
2017-07-10T10:26:26.593Z,37.80
2017-07-10T10:28:54.187Z,36.10
2017-07-10T10:31:21.793Z,34.70
2017-07-10T10:33:50.192Z,32.40
2017-07-10T10:36:17.801Z,32.50
2017-07-10T10:38:45.410Z,32.70
2017-07-10T10:41:13.051Z,36.30
2017-07-10T10:43:40.653Z,33.20
2017-07-10T10:46:09.026Z,37.50
2017-07-10T10:48:36.664Z,37.40
2017-07-10T10:51:05.029Z,36.20
2017-07-10T10:53:32.637Z,36.10
2017-07-10T10:56:00.281Z,31.70
2017-07-10T10:58:27.889Z,28.60
2017-07-10T11:00:55.526Z,27.70
2017-07-10T11:03:23.531Z,28.60
2017-07-10T11:05:51.131Z,30.20
2017-07-10T11:08:18.741Z,31.80
2017-07-10T11:10:46.397Z,27.30
2017-07-10T11:13:14.763Z,25.90
2017-07-10T11:15:43.287Z,27.90
2017-07-10T11:18:10.916Z,27.80
2017-07-10T11:20:38.535Z,25.50
2017-07-10T11:23:06.143Z,24.30
2017-07-10T11:25:33.784Z,25.70
2017-07-10T11:28:01.406Z,28.30
2017-07-10T11:30:29.004Z,25.30
2017-07-10T11:32:56.636Z,28.50
2017-07-10T11:35:24.245Z,28.60
2017-07-10T11:37:51.846Z,27.50
2017-07-10T11:40:20.235Z,28.30
2017-07-10T11:42:47.832Z,28.20
2017-07-10T11:45:15.469Z,27.20
2017-07-10T11:47:43.105Z,25.80
2017-07-10T11:50:10.703Z,24.20
2017-07-10T11:52:39.069Z,26.10
2017-07-10T11:55:06.713Z,26.10
2017-07-10T11:57:35.080Z,27.70
2017-07-10T12:00:02.728Z,27.70
2017-07-10T12:02:30.359Z,29.90
2017-07-10T12:04:58.737Z,30.30
2017-07-10T12:07:26.353Z,30.30
2017-07-10T12:09:54.181Z,30.10
2017-07-10T12:12:21.792Z,33.60
2017-07-10T12:14:49.410Z,31.70
2017-07-10T12:17:17.807Z,30.60
2017-07-10T12:19:45.413Z,30.00
2017-07-10T12:22:13.783Z,31.40
2017-07-10T12:24:42.214Z,28.80
2017-07-10T12:27:09.835Z,28.60
2017-07-10T12:29:37.443Z,27.70
2017-07-10T12:32:05.087Z,30.60
2017-07-10T12:34:33.517Z,29.10
2017-07-10T12:37:01.115Z,29.00
2017-07-10T12:39:28.744Z,30.20
2017-07-10T12:41:57.112Z,31.50
2017-07-10T12:44:25.486Z,29.90
2017-07-10T12:46:53.254Z,29.80
2017-07-10T12:49:20.858Z,30.20
2017-07-10T12:51:49.248Z,29.30
2017-07-10T12:54:16.888Z,29.20
2017-07-10T12:56:44.500Z,31.80
2017-07-10T12:59:12.095Z,30.50
2017-07-10T13:01:39.760Z,31.90
2017-07-10T13:04:07.359Z,32.40
2017-07-10T13:06:35.732Z,33.60
2017-07-10T13:09:04.157Z,32.80
2017-07-10T13:11:31.754Z,32.80
2017-07-10T13:13:59.388Z,33.80
2017-07-10T13:16:27.796Z,33.40
2017-07-10T13:18:55.421Z,33.40
2017-07-10T13:21:23.121Z,31.00
2017-07-10T13:23:50.786Z,32.90
2017-07-10T13:26:19.151Z,34.50
2017-07-10T13:28:47.516Z,31.70
2017-07-10T13:31:15.915Z,32.70
2017-07-10T13:33:43.531Z,32.70
2017-07-10T13:36:11.886Z,32.70
2017-07-10T13:38:40.307Z,30.20
2017-07-10T13:41:09.089Z,30.20
2017-07-10T13:43:36.688Z,33.90
2017-07-10T13:46:04.556Z,33.90
2017-07-10T13:48:32.163Z,31.20
2017-07-10T13:51:00.541Z,34.20
2017-07-10T13:53:28.185Z,34.20
2017-07-10T13:55:56.546Z,30.40
2017-07-10T13:58:24.220Z,30.40
2017-07-10T14:00:51.863Z,30.50
2017-07-10T14:03:19.463Z,33.10
2017-07-10T14:05:47.063Z,33.30
2017-07-10T14:08:14.703Z,31.70
2017-07-10T14:10:42.309Z,31.90
2017-07-10T14:13:09.996Z,33.10
2017-07-10T14:15:37.636Z,34.90
2017-07-10T14:18:05.328Z,35.60
2017-07-10T14:20:32.992Z,34.20
2017-07-10T14:23:00.632Z,35.70
2017-07-10T14:25:28.251Z,37.20
2017-07-10T14:27:55.853Z,32.90
2017-07-10T14:30:23.606Z,37.00
2017-07-10T14:32:51.305Z,35.90
2017-07-10T14:35:18.913Z,36.50
2017-07-10T14:37:46.549Z,36.90
2017-07-10T14:40:14.204Z,34.50
2017-07-10T14:42:41.811Z,35.80
2017-07-10T14:45:09.457Z,36.20
2017-07-10T14:47:37.059Z,35.20
2017-07-10T14:50:04.682Z,33.80
2017-07-10T14:52:32.307Z,35.20
2017-07-10T14:55:00.679Z,38.40
2017-07-10T14:57:29.043Z,39.60
2017-07-10T14:59:57.449Z,43.10
2017-07-10T15:02:25.052Z,42.50
2017-07-10T15:04:52.666Z,51.10
2017-07-10T15:07:20.305Z,57.80
2017-07-10T15:09:47.915Z,56.80
2017-07-10T15:12:15.525Z,66.10
2017-07-10T15:14:43.927Z,79.60
2017-07-10T15:17:11.891Z,79.50
2017-07-10T15:19:39.486Z,88.90
2017-07-10T15:22:07.119Z,89.30
2017-07-10T15:24:34.725Z,92.00
2017-07-10T15:27:02.341Z,86.50
2017-07-10T15:29:30.196Z,88.60
2017-07-10T15:31:57.810Z,92.40
2017-07-10T15:34:25.427Z,93.20
2017-07-10T15:36:53.093Z,95.90
2017-07-10T15:39:20.698Z,95.20
2017-07-10T15:41:48.315Z,96.70
2017-07-10T15:44:16.728Z,95.00
2017-07-10T15:46:44.489Z,95.00
2017-07-10T15:49:12.091Z,95.50
2017-07-10T15:51:39.734Z,94.70
2017-07-10T15:54:07.349Z,92.90
2017-07-10T15:56:35.742Z,91.10
2017-07-10T15:59:03.495Z,90.70
2017-07-10T16:01:31.188Z,94.20
2017-07-10T16:03:58.803Z,92.70
2017-07-10T16:06:26.446Z,94.30
2017-07-10T16:08:54.100Z,93.10
2017-07-10T16:11:21.715Z,94.10
2017-07-10T16:13:49.365Z,94.60
2017-07-10T16:16:16.967Z,94.30
2017-07-10T16:18:44.583Z,90.60
2017-07-10T16:21:12.227Z,91.90
2017-07-10T16:23:39.876Z,91.00
2017-07-10T16:26:07.486Z,89.50
2017-07-10T16:28:35.129Z,90.50
2017-07-10T16:31:03.509Z,88.90
2017-07-10T16:33:31.116Z,88.90
2017-07-10T16:35:58.779Z,90.10
2017-07-10T16:38:27.147Z,87.20
2017-07-10T16:40:55.579Z,83.90
2017-07-10T16:43:23.429Z,83.80
2017-07-10T16:45:51.031Z,83.00
2017-07-10T16:48:18.645Z,83.30
2017-07-10T16:50:47.043Z,84.40
2017-07-10T16:53:14.655Z,84.40
2017-07-10T16:55:43.062Z,82.50
2017-07-10T16:58:10.714Z,82.50
2017-07-10T17:00:38.332Z,84.10
2017-07-10T17:03:06.702Z,84.80
2017-07-10T17:05:34.480Z,84.80
2017-07-10T17:08:02.078Z,84.50
2017-07-10T17:10:30.452Z,84.40
2017-07-10T17:12:58.217Z,83.50
2017-07-10T17:15:25.829Z,83.90
2017-07-10T17:17:53.476Z,82.70
2017-07-10T17:20:21.877Z,88.50
2017-07-10T17:22:49.475Z,88.40
2017-07-10T17:25:17.089Z,85.20
2017-07-10T17:27:44.737Z,86.20
2017-07-10T17:30:12.370Z,86.00
2017-07-10T17:32:40.127Z,86.20
2017-07-10T17:35:07.762Z,85.50
2017-07-10T17:37:35.374Z,85.20
2017-07-10T17:40:03.760Z,85.40
2017-07-10T17:42:31.384Z,85.40
2017-07-10T17:44:59.760Z,87.70
2017-07-10T17:47:27.371Z,87.70
2017-07-10T17:49:55.021Z,90.30
2017-07-10T17:52:22.620Z,87.90
2017-07-10T17:54:50.229Z,87.80
2017-07-10T17:57:17.874Z,88.70
2017-07-10T17:59:46.249Z,87.60
2017-07-10T18:02:13.966Z,87.60
2017-07-10T18:04:42.404Z,90.30
2017-07-10T18:07:10.032Z,90.20
2017-07-10T18:09:37.636Z,92.20
2017-07-10T18:12:06.060Z,93.70
2017-07-10T18:14:33.682Z,93.60
2017-07-10T18:17:01.287Z,92.90
2017-07-10T18:19:28.981Z,95.10
2017-07-10T18:21:56.648Z,95.90
2017-07-10T18:24:24.268Z,95.80
2017-07-10T18:26:51.900Z,95.40
2017-07-10T18:29:19.506Z,95.00
2017-07-10T18:31:47.114Z,96.20
2017-07-10T18:34:14.757Z,96.80
2017-07-10T18:36:42.437Z,96.50
2017-07-10T18:39:10.845Z,97.40
2017-07-10T18:41:39.247Z,88.30
2017-07-10T18:44:06.855Z,88.30
2017-07-10T18:46:35.228Z,84.20
2017-07-10T18:49:02.895Z,84.30
2017-07-10T18:51:30.517Z,83.40
2017-07-10T18:53:58.129Z,83.00
2017-07-10T18:56:25.763Z,84.80
2017-07-10T18:58:54.181Z,87.10
2017-07-10T19:01:21.793Z,87.00
2017-07-10T19:03:50.203Z,91.40
2017-07-10T19:06:17.813Z,91.30
2017-07-10T19:08:46.179Z,90.50
2017-07-10T19:11:14.585Z,90.90
2017-07-10T19:13:42.192Z,90.90
2017-07-10T19:16:10.560Z,89.30
2017-07-10T19:18:38.965Z,90.20
2017-07-10T19:21:06.584Z,90.10
2017-07-10T19:23:34.950Z,91.60
2017-07-10T19:26:04.154Z,93.10
2017-07-10T19:28:32.593Z,92.60
2017-07-10T19:31:00.202Z,92.50
2017-07-10T19:33:27.840Z,94.20
2017-07-10T19:35:55.446Z,93.90
2017-07-10T19:38:23.111Z,95.40
2017-07-10T19:40:50.757Z,94.50
2017-07-10T19:43:18.355Z,92.50
2017-07-10T19:45:46.720Z,95.30
2017-07-10T19:48:14.369Z,95.30
2017-07-10T19:50:41.975Z,95.90
2017-07-10T19:53:09.585Z,95.90
2017-07-10T19:55:37.248Z,95.80
2017-07-10T19:58:04.857Z,95.50
2017-07-10T20:00:32.464Z,94.40
2017-07-10T20:03:00.141Z,96.80
2017-07-10T20:05:28.501Z,97.00
2017-07-10T20:07:56.871Z,96.30
2017-07-10T20:10:25.263Z,94.90
2017-07-10T20:12:52.924Z,94.90
2017-07-10T20:15:20.537Z,92.80
2017-07-10T20:17:48.178Z,95.20
2017-07-10T20:20:15.789Z,92.50
2017-07-10T20:22:43.489Z,91.50
2017-07-10T20:25:11.136Z,92.70
2017-07-10T20:27:38.734Z,91.30
2017-07-10T20:30:06.345Z,91.10
2017-07-10T20:32:35.073Z,90.50
2017-07-10T20:35:02.785Z,91.30
2017-07-10T20:37:30.418Z,92.20
2017-07-10T20:39:58.056Z,90.60
2017-07-10T20:42:25.651Z,89.10
2017-07-10T20:44:54.057Z,89.80
2017-07-10T20:47:21.691Z,89.40
2017-07-10T20:49:49.293Z,89.40
2017-07-10T20:52:16.905Z,90.60
2017-07-10T20:54:44.553Z,90.50
2017-07-10T20:57:12.161Z,91.00
2017-07-10T20:59:39.792Z,89.30
2017-07-10T21:02:08.218Z,90.90
2017-07-10T21:04:35.824Z,90.80
2017-07-10T21:07:03.490Z,90.70
2017-07-10T21:09:31.133Z,90.90
2017-07-10T21:11:58.764Z,91.10
2017-07-10T21:14:26.463Z,91.30
2017-07-10T21:16:54.883Z,91.50
2017-07-10T21:19:22.577Z,91.40
2017-07-10T21:21:50.977Z,92.20
2017-07-10T21:24:19.392Z,92.60
2017-07-10T21:26:47.048Z,92.50
2017-07-10T21:29:14.670Z,91.80
2017-07-10T21:31:42.341Z,91.20
2017-07-10T21:34:10.139Z,90.80
2017-07-10T21:36:37.744Z,90.90
2017-07-10T21:39:06.173Z,91.50
2017-07-10T21:41:33.796Z,91.50
2017-07-10T21:44:01.404Z,90.90
2017-07-10T21:46:29.056Z,91.50
2017-07-10T21:48:56.654Z,91.70
2017-07-10T21:51:24.285Z,91.40
2017-07-10T21:53:51.935Z,91.20
2017-07-10T21:56:19.554Z,91.50
2017-07-10T21:58:47.932Z,91.80
2017-07-10T22:01:16.336Z,91.60
2017-07-10T22:03:44.109Z,91.50
2017-07-10T22:06:11.721Z,91.60
2017-07-10T22:08:39.386Z,92.30
2017-07-10T22:11:06.991Z,92.10
2017-07-10T22:13:34.601Z,92.50
2017-07-10T22:16:02.241Z,91.70
2017-07-10T22:18:30.836Z,94.90
2017-07-10T22:20:59.208Z,95.40
2017-07-10T22:23:26.852Z,95.30
2017-07-10T22:25:54.466Z,95.00
2017-07-10T22:28:22.073Z,92.30
2017-07-10T22:30:49.710Z,91.50
2017-07-10T22:33:17.326Z,92.00
2017-07-10T22:35:45.702Z,93.00
2017-07-10T22:38:13.415Z,92.90
2017-07-10T22:40:41.589Z,89.80
2017-07-10T22:43:09.249Z,89.60
2017-07-10T22:45:37.652Z,90.10
2017-07-10T22:48:05.247Z,90.80
2017-07-10T22:50:33.687Z,89.10
2017-07-10T22:53:01.325Z,88.30
2017-07-10T22:55:28.932Z,89.80
2017-07-10T22:57:56.533Z,91.20
2017-07-10T23:00:24.181Z,90.10
2017-07-10T23:02:51.797Z,90.00
2017-07-10T23:05:19.407Z,89.30
2017-07-10T23:07:47.043Z,90.80
2017-07-10T23:10:15.413Z,92.90
2017-07-10T23:12:43.095Z,92.90
2017-07-10T23:15:10.731Z,93.90
2017-07-10T23:17:38.350Z,93.00
2017-07-10T23:20:05.969Z,94.00
2017-07-10T23:22:33.594Z,92.80
2017-07-10T23:25:01.209Z,92.60
2017-07-10T23:27:28.816Z,92.30
2017-07-10T23:29:57.229Z,90.00
2017-07-10T23:32:24.861Z,89.90
2017-07-10T23:34:52.619Z,88.80
2017-07-10T23:37:20.255Z,89.50
2017-07-10T23:39:47.865Z,90.40
2017-07-10T23:42:15.467Z,90.00
2017-07-10T23:44:43.175Z,90.00
2017-07-10T23:47:10.799Z,90.30
2017-07-10T23:49:39.187Z,90.20
2017-07-10T23:52:06.838Z,90.30
2017-07-10T23:54:34.443Z,90.00
2017-07-10T23:57:02.044Z,90.50
2017-07-10T23:59:29.684Z,90.50
